createdAt,value
2018-12-01T00:00:23.844Z,98.20
2018-12-01T00:02:53.062Z,98.20
2018-12-01T00:05:21.316Z,98.20
2018-12-01T00:07:51.246Z,98.20
2018-12-01T00:10:20.456Z,98.20
2018-12-01T00:12:48.681Z,98.20
2018-12-01T00:15:21.112Z,98.20
2018-12-01T00:17:49.965Z,98.20
2018-12-01T00:20:20.517Z,98.20
2018-12-01T00:22:49.082Z,98.20
2018-12-01T00:25:17.314Z,98.20
2018-12-01T00:27:46.240Z,98.20
2018-12-01T00:30:15.574Z,98.50
2018-12-01T00:32:44.552Z,98.20
2018-12-01T00:35:13.815Z,98.20
2018-12-01T00:37:42.038Z,98.20
2018-12-01T00:40:15.636Z,98.30
2018-12-01T00:42:43.979Z,98.30
2018-12-01T00:45:13.214Z,98.20
2018-12-01T00:47:41.589Z,98.20
2018-12-01T00:50:11.075Z,98.30
2018-12-01T00:52:39.317Z,98.30
2018-12-01T00:55:12.781Z,98.30
2018-12-01T00:57:41.010Z,98.30
2018-12-01T01:00:14.547Z,98.30
2018-12-01T01:02:42.807Z,98.30
2018-12-01T01:05:11.068Z,98.30
2018-12-01T01:07:39.748Z,98.30
2018-12-01T01:10:09.589Z,98.30
2018-12-01T01:12:38.384Z,98.30
2018-12-01T01:15:07.596Z,98.30
2018-12-01T01:17:36.272Z,98.30
2018-12-01T01:20:09.425Z,98.30
2018-12-01T01:22:37.722Z,98.30
2018-12-01T01:25:06.852Z,98.30
2018-12-01T01:27:35.116Z,98.30
2018-12-01T01:30:05.320Z,98.30
2018-12-01T01:32:33.607Z,98.30
2018-12-01T01:35:01.824Z,98.30
2018-12-01T01:37:30.057Z,98.20
2018-12-01T01:39:58.302Z,98.20
2018-12-01T01:42:27.790Z,98.20
2018-12-01T01:44:56.014Z,98.20
2018-12-01T01:47:24.257Z,98.20
2018-12-01T01:49:52.515Z,98.20
2018-12-01T01:52:20.744Z,98.20
2018-12-01T01:54:48.976Z,98.20
2018-12-01T01:57:17.219Z,98.20
2018-12-01T01:59:45.460Z,98.20
2018-12-01T02:02:13.737Z,98.20
2018-12-01T02:04:41.982Z,98.20
2018-12-01T02:07:10.249Z,98.20
2018-12-01T02:09:38.522Z,98.20
2018-12-01T02:12:06.861Z,98.20
2018-12-01T02:14:35.094Z,98.20
2018-12-01T02:17:03.332Z,98.20
2018-12-01T02:19:31.568Z,98.20
2018-12-01T02:21:59.796Z,98.20
2018-12-01T02:24:27.999Z,98.20
2018-12-01T02:26:56.256Z,98.20
2018-12-01T02:29:24.453Z,98.20
2018-12-01T02:31:52.640Z,98.20
2018-12-01T02:34:20.842Z,98.20
2018-12-01T02:36:49.082Z,98.20
2018-12-01T02:39:17.370Z,98.20
2018-12-01T02:41:47.497Z,98.30
2018-12-01T02:47:32.888Z,98.20
2018-12-01T02:50:01.145Z,98.20
2018-12-01T02:52:29.431Z,98.20
2018-12-01T02:54:57.651Z,98.30
2018-12-01T02:57:25.934Z,98.50
2018-12-01T02:59:54.151Z,98.30
2018-12-01T03:02:24.449Z,98.30
2018-12-01T03:04:53.269Z,98.30
2018-12-01T03:07:21.734Z,98.30
2018-12-01T03:09:49.997Z,98.30
2018-12-01T03:12:18.206Z,98.30
2018-12-01T03:14:46.517Z,98.30
2018-12-01T03:17:14.752Z,98.30
2018-12-01T03:19:43.759Z,98.60
2018-12-01T03:22:12.010Z,98.30
2018-12-01T03:24:40.241Z,98.30
2018-12-01T03:27:08.461Z,98.30
2018-12-01T03:29:36.705Z,98.30
2018-12-01T03:32:05.129Z,98.30
2018-12-01T03:34:33.401Z,98.30
2018-12-01T03:37:01.624Z,98.30
2018-12-01T03:39:29.831Z,98.30
2018-12-01T03:41:58.150Z,98.30
2018-12-01T03:44:26.374Z,98.30
2018-12-01T03:46:54.575Z,98.30
2018-12-01T03:49:22.812Z,98.30
2018-12-01T03:51:51.049Z,98.30
2018-12-01T03:54:19.304Z,98.30
2018-12-01T03:56:47.515Z,98.30
2018-12-01T03:59:15.744Z,98.30
2018-12-01T04:01:43.951Z,98.30
2018-12-01T04:04:12.185Z,98.20
2018-12-01T04:06:40.653Z,98.20
2018-12-01T04:09:14.384Z,98.20
2018-12-01T04:11:43.081Z,98.10
2018-12-01T04:14:11.373Z,98.10
2018-12-01T04:16:39.669Z,98.10
2018-12-01T04:19:07.873Z,98.10
2018-12-01T04:21:36.137Z,98.10
2018-12-01T04:24:04.337Z,98.10
2018-12-01T04:26:32.589Z,98.10
2018-12-01T04:29:01.436Z,98.20
2018-12-01T04:31:29.683Z,98.30
2018-12-01T04:33:57.913Z,98.30
2018-12-01T04:36:26.113Z,98.40
2018-12-01T04:38:54.329Z,98.40
2018-12-01T04:41:22.550Z,98.40
2018-12-01T04:43:50.838Z,98.40
2018-12-01T04:46:19.108Z,98.50
2018-12-01T04:48:47.312Z,98.50
2018-12-01T04:51:15.527Z,98.50
2018-12-01T04:53:43.721Z,98.40
2018-12-01T04:56:11.991Z,98.50
2018-12-01T04:58:40.309Z,98.40
2018-12-01T05:01:08.537Z,98.40
2018-12-01T05:03:36.744Z,98.40
2018-12-01T05:06:05.063Z,98.40
2018-12-01T05:08:33.273Z,98.40
2018-12-01T05:11:02.444Z,98.40
2018-12-01T05:13:30.725Z,98.40
2018-12-01T05:15:58.981Z,98.40
2018-12-01T05:18:27.196Z,98.30
2018-12-01T05:20:55.436Z,98.30
2018-12-01T05:23:23.645Z,98.30
2018-12-01T05:25:51.893Z,98.30
2018-12-01T05:28:20.152Z,98.20
2018-12-01T05:30:48.374Z,98.20
2018-12-01T05:33:16.606Z,98.10
2018-12-01T05:35:44.820Z,98.10
2018-12-01T05:38:13.040Z,98.10
2018-12-01T05:40:41.400Z,98.00
2018-12-01T05:43:09.616Z,98.00
2018-12-01T05:45:37.818Z,97.90
2018-12-01T05:48:06.173Z,97.80
2018-12-01T05:50:34.386Z,97.80
2018-12-01T05:53:02.656Z,97.90
2018-12-01T05:55:30.889Z,97.90
2018-12-01T05:57:59.115Z,97.90
2018-12-01T06:00:27.348Z,98.00
2018-12-01T06:02:55.558Z,98.00
2018-12-01T06:05:23.805Z,98.00
2018-12-01T06:07:52.013Z,98.00
2018-12-01T06:10:22.233Z,98.00
2018-12-01T06:12:51.656Z,98.00
2018-12-01T06:15:20.334Z,98.00
2018-12-01T06:17:48.555Z,97.90
2018-12-01T06:20:18.958Z,97.80
2018-12-01T06:22:47.140Z,97.80
2018-12-01T06:25:17.529Z,97.80
2018-12-01T06:27:45.736Z,97.70
2018-12-01T06:30:21.224Z,97.70
2018-12-01T06:32:51.461Z,97.80
2018-12-01T06:35:19.742Z,97.60
2018-12-01T06:37:47.990Z,97.50
2018-12-01T06:40:20.197Z,97.40
2018-12-01T06:42:48.632Z,97.30
2018-12-01T06:45:17.349Z,97.30
2018-12-01T06:47:45.592Z,97.30
2018-12-01T06:50:15.719Z,97.20
2018-12-01T06:52:43.961Z,97.20
2018-12-01T06:55:13.225Z,97.30
2018-12-01T06:57:41.966Z,97.30
2018-12-01T07:00:12.595Z,97.40
2018-12-01T07:02:41.184Z,97.50
2018-12-01T07:05:10.616Z,97.50
2018-12-01T07:07:38.870Z,97.50
2018-12-01T07:10:09.992Z,97.50
2018-12-01T07:12:38.400Z,97.50
2018-12-01T07:15:09.317Z,97.50
2018-12-01T07:17:37.566Z,97.50
2018-12-01T07:20:07.342Z,97.50
2018-12-01T07:22:35.632Z,97.60
2018-12-01T07:25:04.066Z,97.70
2018-12-01T07:27:32.296Z,97.70
2018-12-01T07:30:00.594Z,97.70
2018-12-01T07:32:28.849Z,97.80
2018-12-01T07:34:57.095Z,97.80
2018-12-01T07:37:25.376Z,97.70
2018-12-01T07:39:53.599Z,97.70
2018-12-01T07:42:21.859Z,97.60
2018-12-01T07:44:50.116Z,97.50
2018-12-01T07:47:18.336Z,97.40
2018-12-01T07:49:46.606Z,97.40
2018-12-01T07:52:14.909Z,97.30
2018-12-01T07:54:43.120Z,97.30
2018-12-01T07:57:11.371Z,97.20
2018-12-01T07:59:40.472Z,97.00
2018-12-01T08:02:08.714Z,96.60
2018-12-01T08:04:36.945Z,96.40
2018-12-01T08:07:05.996Z,96.30
2018-12-01T08:09:37.135Z,96.20
2018-12-01T08:12:05.463Z,96.10
2018-12-01T08:14:33.739Z,96.20
2018-12-01T08:17:02.139Z,96.00
2018-12-01T08:19:30.590Z,96.00
2018-12-01T08:21:58.918Z,96.10
2018-12-01T08:24:27.282Z,96.00
2018-12-01T08:26:55.611Z,95.80
2018-12-01T08:29:23.912Z,95.60
2018-12-01T08:31:52.326Z,95.40
2018-12-01T08:34:24.538Z,95.20
2018-12-01T08:36:54.808Z,95.00
2018-12-01T08:39:23.253Z,94.70
2018-12-01T08:41:51.560Z,94.40
2018-12-01T08:44:19.814Z,94.10
2018-12-01T08:46:48.782Z,94.00
2018-12-01T08:49:17.081Z,93.80
2018-12-01T08:51:45.530Z,93.70
2018-12-01T08:54:13.803Z,93.10
2018-12-01T08:56:42.125Z,92.90
2018-12-01T08:59:10.467Z,92.60
2018-12-01T09:01:38.731Z,92.70
2018-12-01T09:04:07.246Z,92.70
2018-12-01T09:06:36.306Z,92.60
2018-12-01T09:09:07.744Z,92.40
2018-12-01T09:11:36.236Z,92.30
2018-12-01T09:14:05.245Z,91.20
2018-12-01T09:16:33.552Z,91.20
2018-12-01T09:19:01.873Z,90.60
2018-12-01T09:21:30.254Z,90.70
2018-12-01T09:24:01.775Z,89.90
2018-12-01T09:26:30.056Z,90.30
2018-12-01T09:28:58.390Z,90.00
2018-12-01T09:31:26.691Z,90.00
2018-12-01T09:33:55.059Z,90.20
2018-12-01T09:36:23.337Z,89.80
2018-12-01T09:38:51.632Z,89.30
2018-12-01T09:41:19.882Z,89.20
2018-12-01T09:43:48.166Z,89.20
2018-12-01T09:46:16.442Z,88.20
2018-12-01T09:48:44.747Z,88.10
2018-12-01T09:51:13.112Z,87.40
2018-12-01T09:53:42.435Z,86.50
2018-12-01T09:56:10.707Z,86.50
2018-12-01T09:58:39.933Z,85.10
2018-12-01T10:01:08.176Z,84.30
2018-12-01T10:03:36.515Z,83.90
2018-12-01T10:06:04.791Z,83.10
2018-12-01T10:08:33.724Z,83.10
2018-12-01T10:11:02.130Z,83.40
2018-12-01T10:13:30.489Z,84.10
2018-12-01T10:15:58.773Z,83.10
2018-12-01T10:18:27.079Z,83.00
2018-12-01T10:20:55.349Z,81.20
2018-12-01T10:23:23.685Z,79.30
2018-12-01T10:25:51.990Z,77.90
2018-12-01T10:28:20.237Z,76.20
2018-12-01T10:30:48.505Z,76.30
2018-12-01T10:33:18.813Z,75.90
2018-12-01T10:35:47.128Z,74.10
2018-12-01T10:38:17.171Z,75.40
2018-12-01T10:40:45.496Z,75.70
2018-12-01T10:43:13.774Z,74.40
2018-12-01T10:45:42.520Z,75.90
2018-12-01T10:48:11.437Z,76.40
2018-12-01T10:50:39.874Z,76.40
2018-12-01T10:53:09.163Z,76.30
2018-12-01T10:55:37.435Z,76.40
2018-12-01T10:58:12.119Z,76.90
2018-12-01T11:00:46.717Z,77.40
2018-12-01T11:03:20.407Z,78.50
2018-12-01T11:05:48.737Z,79.00
2018-12-01T11:08:17.639Z,78.90
2018-12-01T11:10:46.711Z,79.00
2018-12-01T11:13:15.668Z,78.00
2018-12-01T11:15:44.185Z,74.10
2018-12-01T11:18:12.432Z,73.20
2018-12-01T11:20:40.703Z,75.40
2018-12-01T11:23:09.036Z,73.90
2018-12-01T11:25:37.649Z,73.70
2018-12-01T11:28:05.886Z,73.70
2018-12-01T11:30:34.318Z,72.90
2018-12-01T11:33:02.694Z,72.00
2018-12-01T11:35:31.010Z,72.40
2018-12-01T11:37:59.273Z,72.50
2018-12-01T11:40:27.572Z,73.00
2018-12-01T11:42:55.860Z,73.20
2018-12-01T11:45:24.195Z,74.30
2018-12-01T11:47:52.453Z,73.60
2018-12-01T11:50:21.660Z,74.20
2018-12-01T11:52:50.741Z,74.00
2018-12-01T11:55:22.152Z,73.50
2018-12-01T11:57:50.709Z,74.00
2018-12-01T12:00:21.153Z,72.70
2018-12-01T12:02:49.461Z,71.80
2018-12-01T12:05:17.846Z,68.90
2018-12-01T12:07:58.402Z,68.80
2018-12-01T12:10:26.783Z,67.80
2018-12-01T12:12:55.074Z,67.60
2018-12-01T12:15:24.078Z,68.60
2018-12-01T12:17:58.662Z,68.20
2018-12-01T12:20:26.973Z,70.50
2018-12-01T12:22:55.256Z,72.60
2018-12-01T12:25:23.571Z,73.50
2018-12-01T12:27:51.845Z,73.80
2018-12-01T12:30:23.421Z,73.60
2018-12-01T12:32:49.729Z,72.10
2018-12-01T12:35:18.136Z,72.20
2018-12-01T12:37:46.476Z,70.00
2018-12-01T12:40:18.863Z,68.70
2018-12-01T12:42:47.463Z,69.10
2018-12-01T12:45:15.863Z,70.40
2018-12-01T12:47:44.789Z,71.20
2018-12-01T12:50:14.105Z,72.00
2018-12-01T12:52:43.425Z,72.70
2018-12-01T12:55:16.109Z,73.30
2018-12-01T12:57:44.436Z,74.00
2018-12-01T13:00:14.489Z,75.00
2018-12-01T13:02:50.045Z,75.00
2018-12-01T13:05:20.393Z,74.60
2018-12-01T13:07:48.753Z,75.40
2018-12-01T13:10:21.211Z,76.70
2018-12-01T13:12:49.511Z,76.40
2018-12-01T13:15:17.837Z,77.20
2018-12-01T13:17:46.379Z,79.10
2018-12-01T13:20:19.605Z,77.40
2018-12-01T13:22:49.213Z,77.50
2018-12-01T13:25:17.463Z,77.30
2018-12-01T13:28:03.449Z,77.60
2018-12-01T13:30:34.564Z,77.80
2018-12-01T13:33:03.091Z,77.70
2018-12-01T13:35:31.400Z,78.60
2018-12-01T13:37:59.750Z,77.70
2018-12-01T13:40:28.140Z,77.40
2018-12-01T13:42:56.922Z,76.40
2018-12-01T13:45:25.653Z,76.10
2018-12-01T13:47:53.929Z,76.00
2018-12-01T13:50:23.462Z,75.70
2018-12-01T13:52:57.541Z,75.60
2018-12-01T13:55:26.874Z,75.90
2018-12-01T13:57:55.191Z,75.60
2018-12-01T14:00:25.605Z,74.50
2018-12-01T14:02:54.777Z,73.90
2018-12-01T14:05:23.107Z,69.10
2018-12-01T14:07:51.621Z,68.00
2018-12-01T14:10:22.191Z,65.40
2018-12-01T14:12:51.855Z,64.70
2018-12-01T14:15:21.218Z,63.20
2018-12-01T14:17:49.605Z,64.40
2018-12-01T14:20:18.393Z,65.90
2018-12-01T14:22:47.509Z,68.10
2018-12-01T14:25:17.367Z,68.00
2018-12-01T14:27:49.268Z,68.90
2018-12-01T14:30:17.733Z,69.90
2018-12-01T14:32:46.279Z,70.70
2018-12-01T14:35:19.821Z,71.70
2018-12-01T14:37:52.551Z,73.30
2018-12-01T14:40:20.922Z,74.70
2018-12-01T14:42:49.830Z,75.60
2018-12-01T14:45:18.877Z,77.00
2018-12-01T14:47:47.292Z,77.80
2018-12-01T14:50:16.342Z,78.00
2018-12-01T14:52:45.517Z,78.60
2018-12-01T14:55:17.039Z,77.90
2018-12-01T14:57:46.579Z,78.10
2018-12-01T15:00:16.989Z,78.70
2018-12-01T15:02:46.040Z,79.50
2018-12-01T15:05:16.913Z,80.70
2018-12-01T15:07:46.743Z,81.20
2018-12-01T15:10:17.552Z,81.30
2018-12-01T15:12:47.437Z,81.90
2018-12-01T15:15:18.011Z,82.60
2018-12-01T15:17:46.925Z,83.10
2018-12-01T15:20:17.965Z,84.20
2018-12-01T15:22:48.766Z,84.90
2018-12-01T15:25:21.682Z,85.60
2018-12-01T15:27:50.024Z,86.70
2018-12-01T15:30:21.283Z,87.60
2018-12-01T15:32:58.070Z,88.90
2018-12-01T15:35:26.585Z,90.00
2018-12-01T15:37:54.933Z,90.20
2018-12-01T15:40:23.295Z,90.70
2018-12-01T15:42:51.677Z,90.80
2018-12-01T15:45:22.851Z,91.00
2018-12-01T15:47:51.161Z,91.20
2018-12-01T15:50:22.175Z,91.50
2018-12-01T15:53:07.445Z,91.80
2018-12-01T15:55:35.803Z,92.00
2018-12-01T15:58:04.144Z,92.30
2018-12-01T16:00:32.410Z,92.60
2018-12-01T16:03:04.369Z,93.00
2018-12-01T16:05:33.266Z,93.30
2018-12-01T16:08:01.529Z,93.50
2018-12-01T16:10:29.984Z,93.60
2018-12-01T16:13:02.909Z,93.70
2018-12-01T16:15:34.508Z,93.90
2018-12-01T16:18:02.826Z,94.00
2018-12-01T16:20:31.650Z,94.10
2018-12-01T16:23:00.026Z,94.30
2018-12-01T16:25:28.282Z,94.40
2018-12-01T16:27:56.647Z,94.60
2018-12-01T16:30:33.129Z,94.70
2018-12-01T16:33:02.944Z,94.90
2018-12-01T16:35:31.295Z,95.10
2018-12-01T16:37:59.646Z,95.20
2018-12-01T16:40:37.534Z,95.40
2018-12-01T16:43:08.835Z,95.50
2018-12-01T16:45:37.577Z,95.50
2018-12-01T16:48:07.717Z,95.60
2018-12-01T16:50:36.043Z,95.70
2018-12-01T16:53:05.176Z,95.70
2018-12-01T16:55:33.460Z,95.80
2018-12-01T16:58:02.124Z,95.90
2018-12-01T17:00:30.461Z,95.90
2018-12-01T17:03:02.563Z,95.90
2018-12-01T17:05:34.416Z,95.90
2018-12-01T17:08:02.743Z,95.90
2018-12-01T17:10:31.082Z,95.90
2018-12-01T17:12:59.681Z,96.00
2018-12-01T17:15:27.982Z,95.90
2018-12-01T17:17:56.325Z,95.90
2018-12-01T17:20:24.558Z,95.90
2018-12-01T17:22:55.444Z,95.90
2018-12-01T17:25:23.803Z,95.80
2018-12-01T17:27:53.076Z,95.80
2018-12-01T17:30:28.411Z,96.10
2018-12-01T17:32:57.953Z,96.30
2018-12-01T17:35:28.379Z,96.30
2018-12-01T17:38:00.716Z,96.30
2018-12-01T17:40:35.091Z,96.20
2018-12-01T17:43:03.471Z,96.20
2018-12-01T17:45:31.741Z,96.10
2018-12-01T17:48:00.013Z,96.10
2018-12-01T17:50:28.768Z,96.10
2018-12-01T17:52:57.438Z,96.10
2018-12-01T17:55:28.170Z,96.20
2018-12-01T17:57:56.485Z,96.20
2018-12-01T18:00:26.130Z,96.30
2018-12-01T18:02:55.830Z,96.30
2018-12-01T18:05:28.064Z,96.30
2018-12-01T18:07:56.607Z,96.30
2018-12-01T18:10:24.896Z,96.30
2018-12-01T18:12:53.287Z,96.40
2018-12-01T18:15:21.583Z,96.40
2018-12-01T18:17:49.942Z,96.40
2018-12-01T18:20:22.056Z,96.50
2018-12-01T18:22:57.430Z,96.60
2018-12-01T18:25:26.787Z,96.60
2018-12-01T18:27:56.333Z,96.60
2018-12-01T18:30:30.245Z,96.70
2018-12-01T18:33:00.534Z,96.70
2018-12-01T18:35:28.850Z,96.70
2018-12-01T18:37:57.106Z,96.80
2018-12-01T18:40:25.418Z,96.90
2018-12-01T18:42:53.902Z,97.00
2018-12-01T18:45:22.749Z,97.00
2018-12-01T18:47:51.088Z,97.00
2018-12-01T18:50:20.214Z,97.00
2018-12-01T18:52:58.525Z,97.00
2018-12-01T18:55:28.274Z,97.00
2018-12-01T18:57:56.812Z,97.00
2018-12-01T19:00:26.981Z,97.00
2018-12-01T19:02:55.644Z,97.00
2018-12-01T19:05:24.957Z,97.00
2018-12-01T19:07:53.344Z,97.00
2018-12-01T19:10:21.687Z,96.90
2018-12-01T19:12:51.066Z,96.90
2018-12-01T19:15:20.129Z,96.90
2018-12-01T19:17:49.015Z,96.90
2018-12-01T19:20:18.097Z,96.90
2018-12-01T19:22:52.196Z,96.90
2018-12-01T19:25:22.262Z,96.90
2018-12-01T19:27:52.399Z,96.90
2018-12-01T19:30:22.906Z,96.90
2018-12-01T19:32:57.445Z,97.00
2018-12-01T19:35:25.981Z,96.90
2018-12-01T19:37:54.978Z,96.90
2018-12-01T19:40:28.768Z,96.90
2018-12-01T19:42:56.949Z,96.90
2018-12-01T19:45:25.262Z,96.90
2018-12-01T19:47:53.615Z,97.00
2018-12-01T19:50:31.927Z,97.00
2018-12-01T19:53:01.014Z,97.10
2018-12-01T19:55:29.662Z,97.10
2018-12-01T19:57:58.052Z,97.10
2018-12-01T20:00:29.144Z,97.20
2018-12-01T20:03:01.846Z,97.20
2018-12-01T20:05:30.310Z,97.20
2018-12-01T20:08:01.929Z,97.50
2018-12-01T20:10:35.653Z,97.30
2018-12-01T20:13:07.328Z,97.40
2018-12-01T20:15:40.585Z,97.40
2018-12-01T20:18:15.928Z,97.40
2018-12-01T20:20:44.319Z,97.40
2018-12-01T20:23:21.697Z,97.40
2018-12-01T20:25:51.227Z,97.50
2018-12-01T20:28:19.553Z,97.50
2018-12-01T20:30:49.659Z,97.50
2018-12-01T20:33:18.458Z,97.60
2018-12-01T20:35:51.013Z,97.70
2018-12-01T20:39:42.468Z,97.70
2018-12-01T20:42:24.610Z,97.70
2018-12-01T20:44:54.227Z,97.80
2018-12-01T20:47:25.143Z,97.90
2018-12-01T20:49:53.482Z,98.00
2018-12-01T20:52:22.947Z,98.10
2018-12-01T20:54:51.324Z,98.10
2018-12-01T20:57:25.708Z,98.20
2018-12-01T20:59:53.977Z,98.30
2018-12-01T21:02:22.257Z,98.30
2018-12-01T21:04:51.473Z,98.30
2018-12-01T21:07:20.292Z,98.40
2018-12-01T21:09:48.644Z,98.40
2018-12-01T21:12:17.078Z,98.40
2018-12-01T21:14:45.341Z,98.40
2018-12-01T21:17:14.779Z,98.30
2018-12-01T21:19:43.022Z,98.30
2018-12-01T21:22:11.424Z,98.30
2018-12-01T21:24:39.681Z,98.30
2018-12-01T21:27:07.989Z,98.40
2018-12-01T21:29:36.246Z,98.40
2018-12-01T21:32:05.200Z,98.40
2018-12-01T21:34:33.468Z,98.40
2018-12-01T21:37:01.831Z,98.40
2018-12-01T21:39:30.666Z,98.40
2018-12-01T21:41:58.928Z,98.40
2018-12-01T21:44:27.474Z,98.40
2018-12-01T21:46:55.739Z,98.40
2018-12-01T21:49:24.016Z,98.40
2018-12-01T21:51:52.286Z,98.40
2018-12-01T21:54:20.562Z,98.40
2018-12-01T21:56:48.850Z,98.40
2018-12-01T21:59:17.141Z,98.40
2018-12-01T22:01:45.425Z,98.40
2018-12-01T22:04:13.714Z,98.40
2018-12-01T22:06:42.013Z,98.40
2018-12-01T22:09:10.310Z,98.40
2018-12-01T22:11:38.560Z,98.40
2018-12-01T22:14:06.865Z,98.40
2018-12-01T22:16:35.106Z,98.40
2018-12-01T22:19:03.707Z,98.30
2018-12-01T22:21:32.018Z,98.40
2018-12-01T22:24:00.382Z,98.30
2018-12-01T22:26:28.664Z,98.30
2018-12-01T22:28:57.030Z,98.30
2018-12-01T22:31:25.264Z,98.30
2018-12-01T22:33:53.779Z,98.30
2018-12-01T22:36:22.058Z,98.30
2018-12-01T22:38:50.358Z,98.30
2018-12-01T22:41:18.618Z,98.20
2018-12-01T22:43:46.878Z,98.20
2018-12-01T22:46:15.122Z,98.20
2018-12-01T22:48:43.522Z,98.10
2018-12-01T22:51:11.789Z,98.10
2018-12-01T22:53:40.077Z,98.20
2018-12-01T22:56:08.558Z,98.20
2018-12-01T22:58:36.881Z,98.20
2018-12-01T23:01:05.380Z,98.20
2018-12-01T23:03:37.093Z,98.20
2018-12-01T23:06:05.714Z,98.20
2018-12-01T23:08:34.011Z,98.10
2018-12-01T23:11:02.291Z,98.10
2018-12-01T23:13:30.578Z,98.10
2018-12-01T23:15:58.834Z,98.10
2018-12-01T23:18:27.280Z,98.10
2018-12-01T23:20:55.536Z,98.10
2018-12-01T23:23:23.803Z,98.10
2018-12-01T23:25:52.047Z,98.10
2018-12-01T23:28:20.528Z,98.10
2018-12-01T23:30:50.614Z,98.10
2018-12-01T23:33:20.504Z,98.00
2018-12-01T23:35:48.774Z,98.00
2018-12-01T23:38:17.005Z,98.00
2018-12-01T23:40:45.232Z,97.90
2018-12-01T23:43:13.451Z,97.90
2018-12-01T23:45:43.683Z,97.90
2018-12-01T23:48:11.968Z,97.90
2018-12-01T23:50:41.844Z,97.80
2018-12-01T23:53:12.669Z,97.80
2018-12-01T23:55:40.910Z,97.70
2018-12-01T23:58:09.178Z,97.90
